Milltown, Indiana
Current Conditions -  °F | °C
As of 10:46 AM on Saturday 25 Oct 2014 (Local Time) from KSDF Reporting Station
Overcast Overcast  
Wind Chill: 61°   Ceiling: 2800
Heat Index: 61°   Visibility: 10mi
Dew Point: 52°   Wind: 12mph
Humidity: 72%   Direction: 220°SW
Pressure: 30.03"   Gusts: NA
Location:  38.34°N, 86.28°W
Report Text: KSDF 251446Z 22010KT 10SM BKN028 BKN036 OVC048 16/11 A3003 RMK AO2 T01610111
Loading
Personal Weather Stations






























Interactive Weather Map
Tropical Storm Tracking
New forecast layout! Learn more

10-Day Weather Forecast

Advertisements
Track Severe Weather on mobile